Time,TemperatureF,DewpointF,PressureIn,WindDirection,WindDirectionDegrees,WindSpeedMPH,WindSpeedGustMPH,Humidity,HourlyPrecipIn,Conditions,Clouds,dailyrainin,SoftwareType,DateUTC
2013-03-11 00:02:00,20.0,7.0,29.98,SE,127,12.0,-999.0,54,-99.99,,,-99.99,,2013-03-11 06:02:00,
2013-03-11 00:12:00,20.0,6.0,29.98,SE,139,12.0,-999.0,55,-99.99,,,-99.99,,2013-03-11 06:12:00,
2013-03-11 00:22:00,19.0,7.0,29.97,SE,144,9.0,-999.0,57,-99.99,,,-99.99,,2013-03-11 06:22:00,
2013-03-11 00:32:00,19.0,6.0,29.96,SE,143,10.0,-999.0,56,-99.99,,,-99.99,,2013-03-11 06:32:00,
2013-03-11 00:42:00,18.0,6.0,29.95,SE,144,10.0,-999.0,58,-99.99,,,-99.99,,2013-03-11 06:42:00,
2013-03-11 00:52:00,18.0,6.0,29.95,SE,141,12.0,-999.0,59,-99.99,,,-99.99,,2013-03-11 06:52:00,
2013-03-11 01:02:00,18.0,7.0,29.92,SE,142,12.0,-999.0,60,-99.99,,,-99.99,,2013-03-11 07:02:00,
2013-03-11 01:12:00,18.0,7.0,29.91,SE,142,11.0,-999.0,62,-99.99,,,-99.99,,2013-03-11 07:12:00,
2013-03-11 01:22:00,18.0,7.0,29.91,SE,141,10.0,-999.0,63,-99.99,,,-99.99,,2013-03-11 07:22:00,
2013-03-11 01:32:00,18.0,8.0,29.91,SSE,147,8.0,-999.0,63,-99.99,,,-99.99,,2013-03-11 07:32:00,
2013-03-11 01:42:00,18.0,8.0,29.90,SE,145,11.0,-999.0,62,-99.99,,,-99.99,,2013-03-11 07:42:00,
2013-03-11 01:52:00,19.0,8.0,29.91,SE,146,11.0,-999.0,61,-99.99,,,-99.99,,2013-03-11 07:52:00,
2013-03-11 02:02:00,19.0,8.0,29.92,SSE,150,9.0,-999.0,60,-99.99,,,-99.99,,2013-03-11 08:02:00,
2013-03-11 02:12:00,19.0,8.0,29.91,SSE,148,9.0,-999.0,60,-99.99,,,-99.99,,2013-03-11 08:12:00,
2013-03-11 02:22:00,20.0,8.0,29.90,SSE,147,9.0,-999.0,60,-99.99,,,-99.99,,2013-03-11 08:22:00,
2013-03-11 02:32:00,20.0,8.0,29.90,SSE,147,9.0,-999.0,60,-99.99,,,-99.99,,2013-03-11 08:32:00,
2013-03-11 02:42:00,19.0,8.0,29.90,SSE,153,9.0,-999.0,60,-99.99,,,-99.99,,2013-03-11 08:42:00,
2013-03-11 02:52:00,19.0,8.0,29.89,SSE,164,10.0,-999.0,60,-99.99,,,-99.99,,2013-03-11 08:52:00,
2013-03-11 03:02:00,19.0,7.0,29.87,South,172,12.0,-999.0,60,-99.99,,,-99.99,,2013-03-11 09:02:00,
2013-03-11 03:12:00,19.0,7.0,29.90,SSE,160,10.0,-999.0,60,-99.99,,,-99.99,,2013-03-11 09:12:00,
2013-03-11 03:23:00,19.0,8.0,29.86,South,172,11.0,-999.0,60,-99.99,,,-99.99,,2013-03-11 09:23:00,
2013-03-11 03:32:00,19.0,7.0,29.87,South,171,10.0,-999.0,59,-99.99,,,-99.99,,2013-03-11 09:32:00,
2013-03-11 03:42:00,19.0,7.0,29.89,South,189,9.0,-999.0,59,-99.99,,,-99.99,,2013-03-11 09:42:00,
2013-03-11 03:52:00,18.0,7.0,29.89,South,183,7.0,-999.0,59,-99.99,,,-99.99,,2013-03-11 09:52:00,
2013-03-11 04:02:00,19.0,6.0,29.89,South,176,8.0,-999.0,57,-99.99,,,-99.99,,2013-03-11 10:02:00,
2013-03-11 04:12:00,19.0,7.0,29.87,South,183,8.0,-999.0,57,-99.99,,,-99.99,,2013-03-11 10:12:00,
2013-03-11 04:22:00,21.0,7.0,29.86,South,186,8.0,-999.0,54,-99.99,,,-99.99,,2013-03-11 10:22:00,
2013-03-11 04:32:00,21.0,7.0,29.86,South,173,8.0,-999.0,54,-99.99,,,-99.99,,2013-03-11 10:32:00,
2013-03-11 04:42:00,21.0,7.0,29.87,South,189,8.0,-999.0,56,-99.99,,,-99.99,,2013-03-11 10:42:00,
2013-03-11 04:52:00,20.0,8.0,29.83,South,178,8.0,-999.0,57,-99.99,,,-99.99,,2013-03-11 10:52:00,
2013-03-11 05:02:00,20.0,8.0,29.86,South,170,10.0,-999.0,57,-99.99,,,-99.99,,2013-03-11 11:02:00,
2013-03-11 05:12:00,20.0,7.0,29.86,South,191,9.0,-999.0,58,-99.99,,,-99.99,,2013-03-11 11:12:00,
2013-03-11 05:22:00,19.0,8.0,29.86,South,176,9.0,-999.0,60,-99.99,,,-99.99,,2013-03-11 11:22:00,
2013-03-11 05:32:00,19.0,7.0,29.83,South,190,8.0,-999.0,58,-99.99,,,-99.99,,2013-03-11 11:32:00,
2013-03-11 05:42:00,19.0,7.0,29.83,South,190,8.0,-999.0,58,-99.99,,,-99.99,,2013-03-11 11:42:00,
2013-03-11 05:52:00,20.0,7.0,29.83,SSW,198,9.0,-999.0,57,-99.99,,,-99.99,,2013-03-11 11:52:00,
2013-03-11 06:02:00,18.0,8.0,29.83,SSW,202,9.0,-999.0,62,-99.99,,,-99.99,,2013-03-11 12:02:00,
2013-03-11 06:12:00,19.0,7.0,29.84,SW,225,10.0,-999.0,60,-99.99,,,-99.99,,2013-03-11 12:12:00,
2013-03-11 06:22:00,19.0,9.0,29.83,SSW,212,12.0,-999.0,64,-99.99,,,-99.99,,2013-03-11 12:22:00,
2013-03-11 06:32:00,20.0,8.0,29.83,SW,218,12.0,-999.0,60,-99.99,,,-99.99,,2013-03-11 12:32:00,
2013-03-11 06:43:00,21.0,8.0,29.82,SSW,213,12.0,-999.0,57,-99.99,,,-99.99,,2013-03-11 12:43:00,
2013-03-11 06:52:00,22.0,8.0,29.84,SW,218,13.0,-999.0,56,-99.99,,,-99.99,,2013-03-11 12:52:00,
2013-03-11 07:02:00,22.0,8.0,29.82,SSW,209,14.0,-999.0,53,-99.99,,,-99.99,,2013-03-11 13:02:00,
2013-03-11 07:12:00,22.0,8.0,29.83,SSW,208,12.0,-999.0,54,-99.99,,,-99.99,,2013-03-11 13:12:00,
2013-03-11 07:22:00,22.0,8.0,29.83,SW,218,12.0,-999.0,54,-99.99,,,-99.99,,2013-03-11 13:22:00,
2013-03-11 07:32:00,22.0,7.0,29.81,SW,215,13.0,-999.0,53,-99.99,,,-99.99,,2013-03-11 13:32:00,
2013-03-11 07:42:00,22.0,7.0,29.81,SW,215,13.0,-999.0,53,-99.99,,,-99.99,,2013-03-11 13:42:00,
2013-03-11 07:52:00,22.0,8.0,29.80,SW,224,11.0,-999.0,54,-99.99,,,-99.99,,2013-03-11 13:52:00,
2013-03-11 08:02:00,23.0,8.0,29.82,SW,236,12.0,-999.0,53,-99.99,,,-99.99,,2013-03-11 14:02:00,
2013-03-11 08:12:00,24.0,8.0,29.81,WSW,248,14.0,-999.0,51,-99.99,,,-99.99,,2013-03-11 14:12:00,
2013-03-11 08:22:00,24.0,9.0,29.83,WSW,250,15.0,-999.0,52,-99.99,,,-99.99,,2013-03-11 14:22:00,
2013-03-11 08:33:00,26.0,11.0,29.81,WSW,255,11.0,-999.0,51,-99.99,,,-99.99,,2013-03-11 14:33:00,
2013-03-11 08:42:00,29.0,12.0,29.84,WSW,241,9.0,-999.0,48,-99.99,,,-99.99,,2013-03-11 14:42:00,
2013-03-11 08:52:00,30.0,13.0,29.84,West,260,10.0,-999.0,49,-99.99,,,-99.99,,2013-03-11 14:52:00,
2013-03-11 09:02:00,33.0,12.0,29.84,West,277,16.0,-999.0,42,-99.99,,,-99.99,,2013-03-11 15:02:00,
2013-03-11 09:12:00,33.0,12.0,29.85,West,273,17.0,-999.0,42,-99.99,,,-99.99,,2013-03-11 15:12:00,
2013-03-11 09:22:00,34.0,14.0,29.82,WNW,283,19.0,-999.0,43,-99.99,,,-99.99,,2013-03-11 15:22:00,
2013-03-11 09:32:00,35.0,15.0,29.84,WNW,293,18.0,-999.0,44,-99.99,,,-99.99,,2013-03-11 15:32:00,
2013-03-11 09:42:00,36.0,16.0,29.83,WNW,296,24.0,-999.0,44,-99.99,,,-99.99,,2013-03-11 15:42:00,
2013-03-11 09:52:00,36.0,17.0,29.84,WNW,302,19.0,-999.0,44,-99.99,,,-99.99,,2013-03-11 15:52:00,
2013-03-11 10:02:00,36.0,17.0,29.84,WNW,302,19.0,-999.0,44,-99.99,,,-99.99,,2013-03-11 16:02:00,
2013-03-11 10:12:00,40.0,18.0,29.83,WNW,303,33.0,-999.0,41,-99.99,,,-99.99,,2013-03-11 16:12:00,
2013-03-11 10:22:00,42.0,18.0,29.84,NW,305,36.0,-999.0,38,-99.99,,,-99.99,,2013-03-11 16:22:00,
2013-03-11 10:32:00,43.0,18.0,29.83,NW,307,22.0,-999.0,36,-99.99,,,-99.99,,2013-03-11 16:32:00,
2013-03-11 10:43:00,44.0,19.0,29.83,NW,316,28.0,-999.0,37,-99.99,,,-99.99,,2013-03-11 16:43:00,
2013-03-11 10:52:00,44.0,22.0,29.84,NW,305,38.0,-999.0,41,-99.99,,,-99.99,,2013-03-11 16:52:00,
2013-03-11 11:02:00,44.0,22.0,29.84,NW,305,38.0,-999.0,41,-99.99,,,-99.99,,2013-03-11 17:02:00,
2013-03-11 11:15:00,44.0,22.0,29.84,NW,305,38.0,-999.0,41,-99.99,,,-99.99,,2013-03-11 17:15:00,
2013-03-11 11:26:00,46.0,19.0,29.85,WNW,291,37.0,-999.0,34,-99.99,,,-99.99,,2013-03-11 17:26:00,
2013-03-11 11:35:00,46.0,21.0,29.84,WNW,298,34.0,-999.0,36,-99.99,,,-99.99,,2013-03-11 17:35:00,
2013-03-11 11:42:00,46.0,22.0,29.83,WNW,301,27.0,-999.0,38,-99.99,,,-99.99,,2013-03-11 17:42:00,
2013-03-11 11:52:00,46.0,21.0,29.83,WNW,296,34.0,-999.0,37,-99.99,,,-99.99,,2013-03-11 17:52:00,
2013-03-11 12:02:00,46.0,21.0,29.83,WNW,296,34.0,-999.0,37,-99.99,,,-99.99,,2013-03-11 18:02:00,
2013-03-11 12:12:00,46.0,19.0,29.84,WNW,300,30.0,-999.0,34,-99.99,,,-99.99,,2013-03-11 18:12:00,
2013-03-11 12:23:00,45.0,17.0,29.82,NW,317,36.0,-999.0,31,-99.99,,,-99.99,,2013-03-11 18:23:00,
2013-03-11 12:32:00,45.0,18.0,29.83,NW,307,37.0,-999.0,33,-99.99,,,-99.99,,2013-03-11 18:32:00,
2013-03-11 12:42:00,46.0,17.0,29.83,NNW,327,31.0,-999.0,31,-99.99,,,-99.99,,2013-03-11 18:42:00,
2013-03-11 12:52:00,45.0,15.0,29.82,NW,321,26.0,-999.0,30,-99.99,,,-99.99,,2013-03-11 18:52:00,
2013-03-11 13:02:00,48.0,14.0,29.83,NW,311,30.0,-999.0,26,-99.99,,,-99.99,,2013-03-11 19:02:00,
2013-03-11 13:12:00,48.0,7.0,29.83,North,-999,33.0,-999.0,18,-99.99,,,-99.99,,2013-03-11 19:12:00,
2013-03-11 13:22:00,47.0,5.0,29.84,NNW,336,36.0,-999.0,17,-99.99,,,-99.99,,2013-03-11 19:22:00,
2013-03-11 13:33:00,47.0,7.0,29.83,NNW,331,44.0,-999.0,19,-99.99,,,-99.99,,2013-03-11 19:33:00,
2013-03-11 13:42:00,48.0,8.0,29.82,NNW,340,37.0,-999.0,19,-99.99,,,-99.99,,2013-03-11 19:42:00,
2013-03-11 13:52:00,48.0,9.0,29.83,NW,326,32.0,-999.0,20,-99.99,,,-99.99,,2013-03-11 19:52:00,
2013-03-11 14:02:00,48.0,10.0,29.84,NNW,328,34.0,-999.0,21,-99.99,,,-99.99,,2013-03-11 20:02:00,
2013-03-11 14:12:00,47.0,8.0,29.83,North,-999,40.0,-999.0,20,-99.99,,,-99.99,,2013-03-11 20:12:00,
2013-03-11 14:22:00,47.0,9.0,29.82,NNW,337,28.0,-999.0,21,-99.99,,,-99.99,,2013-03-11 20:22:00,
2013-03-11 14:32:00,47.0,8.0,29.83,NW,326,37.0,-999.0,20,-99.99,,,-99.99,,2013-03-11 20:32:00,
2013-03-11 14:43:00,47.0,8.0,29.83,NW,322,28.0,-999.0,20,-99.99,,,-99.99,,2013-03-11 20:43:00,
2013-03-11 14:52:00,47.0,8.0,29.82,NNW,343,28.0,-999.0,20,-99.99,,,-99.99,,2013-03-11 20:52:00,
2013-03-11 15:03:00,48.0,9.0,29.82,NNW,343,26.0,-999.0,20,-99.99,,,-99.99,,2013-03-11 21:03:00,
2013-03-11 15:12:00,47.0,8.0,29.85,NNW,327,30.0,-999.0,20,-99.99,,,-99.99,,2013-03-11 21:12:00,
2013-03-11 15:22:00,46.0,9.0,29.83,NNW,339,27.0,-999.0,21,-99.99,,,-99.99,,2013-03-11 21:22:00,
2013-03-11 15:32:00,48.0,9.0,29.84,North,-999,37.0,-999.0,20,-99.99,,,-99.99,,2013-03-11 21:32:00,
2013-03-11 15:43:00,44.0,7.0,29.85,NW,323,31.0,-999.0,21,-99.99,,,-99.99,,2013-03-11 21:43:00,
2013-03-11 15:52:00,45.0,6.0,29.85,NNW,335,34.0,-999.0,20,-99.99,,,-99.99,,2013-03-11 21:52:00,
2013-03-11 16:03:00,45.0,6.0,29.85,NNW,335,34.0,-999.0,20,-99.99,,,-99.99,,2013-03-11 22:03:00,
2013-03-11 16:12:00,43.0,6.0,29.86,NNW,344,24.0,-999.0,21,-99.99,,,-99.99,,2013-03-11 22:12:00,
2013-03-11 16:22:00,46.0,5.0,29.87,NNW,340,30.0,-999.0,18,-99.99,,,-99.99,,2013-03-11 22:22:00,
2013-03-11 16:32:00,46.0,5.0,29.87,NNW,340,30.0,-999.0,18,-99.99,,,-99.99,,2013-03-11 22:32:00,
2013-03-11 16:43:00,44.0,2.0,29.90,NW,313,26.0,-999.0,17,-99.99,,,-99.99,,2013-03-11 22:43:00,
2013-03-11 16:53:00,45.0,3.0,29.87,NW,313,29.0,-999.0,17,-99.99,,,-99.99,,2013-03-11 22:53:00,
2013-03-11 17:03:00,44.0,2.0,29.88,NW,310,28.0,-999.0,17,-99.99,,,-99.99,,2013-03-11 23:03:00,
2013-03-11 17:12:00,45.0,1.0,29.89,North,-999,30.0,-999.0,16,-99.99,,,-99.99,,2013-03-11 23:12:00,
2013-03-11 17:22:00,44.0,2.0,29.89,NNW,340,27.0,-999.0,17,-99.99,,,-99.99,,2013-03-11 23:22:00,
2013-03-11 17:32:00,44.0,3.0,29.88,NW,326,35.0,-999.0,18,-99.99,,,-99.99,,2013-03-11 23:32:00,
2013-03-11 17:43:00,43.0,4.0,29.89,NNW,327,30.0,-999.0,19,-99.99,,,-99.99,,2013-03-11 23:43:00,
2013-03-11 17:52:00,43.0,3.0,29.88,NW,319,31.0,-999.0,19,-99.99,,,-99.99,,2013-03-11 23:52:00,
2013-03-11 18:02:00,43.0,3.0,29.88,NW,319,31.0,-999.0,19,-99.99,,,-99.99,,2013-03-12 00:02:00,
2013-03-11 18:12:00,41.0,5.0,29.90,NNW,329,23.0,-999.0,22,-99.99,,,-99.99,,2013-03-12 00:12:00,
2013-03-11 18:23:00,41.0,5.0,29.90,NNW,341,25.0,-999.0,22,-99.99,,,-99.99,,2013-03-12 00:23:00,
2013-03-11 18:33:00,40.0,6.0,29.92,NNW,330,27.0,-999.0,23,-99.99,,,-99.99,,2013-03-12 00:33:00,
2013-03-11 18:42:00,40.0,6.0,29.91,NNW,333,18.0,-999.0,24,-99.99,,,-99.99,,2013-03-12 00:42:00,
2013-03-11 18:53:00,39.0,5.0,29.92,NW,319,25.0,-999.0,24,-99.99,,,-99.99,,2013-03-12 00:53:00,
2013-03-11 19:02:00,39.0,7.0,29.92,NNW,328,25.0,-999.0,26,-99.99,,,-99.99,,2013-03-12 01:02:00,
2013-03-11 19:12:00,37.0,8.0,29.93,NNW,327,22.0,-999.0,29,-99.99,,,-99.99,,2013-03-12 01:12:00,
2013-03-11 19:22:00,36.0,9.0,29.93,NNW,334,20.0,-999.0,31,-99.99,,,-99.99,,2013-03-12 01:22:00,
2013-03-11 19:33:00,35.0,8.0,29.95,NW,316,17.0,-999.0,32,-99.99,,,-99.99,,2013-03-12 01:33:00,
2013-03-11 19:42:00,35.0,8.0,29.95,NW,316,17.0,-999.0,32,-99.99,,,-99.99,,2013-03-12 01:42:00,
2013-03-11 19:52:00,35.0,8.0,29.96,NNW,327,17.0,-999.0,32,-99.99,,,-99.99,,2013-03-12 01:52:00,
2013-03-11 20:02:00,34.0,8.0,29.96,NW,311,14.0,-999.0,33,-99.99,,,-99.99,,2013-03-12 02:02:00,
2013-03-11 20:12:00,33.0,8.0,29.96,NW,309,15.0,-999.0,35,-99.99,,,-99.99,,2013-03-12 02:12:00,
2013-03-11 20:22:00,32.0,9.0,29.99,NW,306,13.0,-999.0,37,-99.99,,,-99.99,,2013-03-12 02:22:00,
2013-03-11 20:32:00,31.0,9.0,29.97,NW,310,12.0,-999.0,39,-99.99,,,-99.99,,2013-03-12 02:32:00,
2013-03-11 20:42:00,29.0,9.0,29.99,North,-999,11.0,-999.0,41,-99.99,,,-99.99,,2013-03-12 02:42:00,
2013-03-11 20:52:00,29.0,8.0,29.97,NW,323,11.0,-999.0,41,-99.99,,,-99.99,,2013-03-12 02:52:00,
2013-03-11 21:02:00,29.0,8.0,29.97,NW,323,11.0,-999.0,41,-99.99,,,-99.99,,2013-03-12 03:02:00,
2013-03-11 21:12:00,28.0,8.0,29.99,NW,306,13.0,-999.0,43,-99.99,,,-99.99,,2013-03-12 03:12:00,
2013-03-11 21:22:00,28.0,8.0,29.99,NW,307,14.0,-999.0,43,-99.99,,,-99.99,,2013-03-12 03:22:00,
2013-03-11 21:32:00,27.0,8.0,29.98,WNW,297,11.0,-999.0,45,-99.99,,,-99.99,,2013-03-12 03:32:00,
2013-03-11 21:42:00,26.0,9.0,30.00,NW,304,12.0,-999.0,47,-99.99,,,-99.99,,2013-03-12 03:42:00,
2013-03-11 21:52:00,27.0,9.0,29.99,WNW,301,10.0,-999.0,46,-99.99,,,-99.99,,2013-03-12 03:52:00,
2013-03-11 22:02:00,27.0,9.0,29.99,WNW,301,10.0,-999.0,46,-99.99,,,-99.99,,2013-03-12 04:02:00,
2013-03-11 22:13:00,25.0,9.0,30.01,WNW,291,12.0,-999.0,51,-99.99,,,-99.99,,2013-03-12 04:13:00,
2013-03-11 22:22:00,25.0,9.0,29.99,WNW,289,12.0,-999.0,51,-99.99,,,-99.99,,2013-03-12 04:22:00,
2013-03-11 22:32:00,24.0,9.0,30.02,West,279,12.0,-999.0,52,-99.99,,,-99.99,,2013-03-12 04:32:00,
2013-03-11 22:43:00,26.0,10.0,30.01,West,280,15.0,-999.0,51,-99.99,,,-99.99,,2013-03-12 04:43:00,
2013-03-11 22:52:00,26.0,10.0,30.01,WNW,286,19.0,-999.0,52,-99.99,,,-99.99,,2013-03-12 04:52:00,
2013-03-11 23:02:00,25.0,11.0,30.02,WNW,291,15.0,-999.0,53,-99.99,,,-99.99,,2013-03-12 05:02:00,
2013-03-11 23:12:00,25.0,11.0,30.03,WNW,299,13.0,-999.0,54,-99.99,,,-99.99,,2013-03-12 05:12:00,
2013-03-11 23:22:00,25.0,11.0,30.03,WNW,301,12.0,-999.0,55,-99.99,,,-99.99,,2013-03-12 05:22:00,
2013-03-11 23:32:00,25.0,12.0,30.04,WNW,302,14.0,-999.0,58,-99.99,,,-99.99,,2013-03-12 05:32:00,
2013-03-11 23:42:00,25.0,12.0,30.04,WNW,302,14.0,-999.0,58,-99.99,,,-99.99,,2013-03-12 05:42:00,
2013-03-11 23:52:00,25.0,13.0,30.04,WNW,303,13.0,-999.0,60,-99.99,,,-99.99,,2013-03-12 05:52:00,